createdAt,value
2023-04-13T17:19:04.101Z,1002.39
2023-04-13T17:20:04.005Z,1002.40
2023-04-13T17:21:03.955Z,1002.46
2023-04-13T17:22:03.911Z,1002.48
2023-04-13T17:23:03.872Z,1002.51
2023-04-13T17:24:03.832Z,1002.48
2023-04-13T17:25:03.775Z,1002.50
2023-04-13T17:26:03.746Z,1002.51
2023-04-13T17:27:03.686Z,1002.47
2023-04-13T17:28:03.641Z,1002.50
2023-04-13T17:29:03.612Z,1002.49
2023-04-13T17:30:03.570Z,1002.56
2023-04-13T17:31:03.555Z,1002.57
2023-04-13T17:32:03.512Z,1002.55
2023-04-13T17:33:03.465Z,1002.59
2023-04-13T17:34:03.385Z,1002.55
2023-04-13T17:35:03.406Z,1002.57
2023-04-13T17:36:03.294Z,1002.60
2023-04-13T17:37:03.250Z,1002.61
2023-04-13T17:38:46.607Z,1002.60
2023-04-13T17:39:46.596Z,1002.64
2023-04-13T17:40:46.531Z,1002.66
2023-04-13T17:41:46.491Z,1002.66
2023-04-13T17:42:46.442Z,1002.64
2023-04-13T17:43:46.403Z,1002.70
2023-04-13T17:44:46.349Z,1002.70
2023-04-13T17:45:46.324Z,1002.72
2023-04-13T17:46:46.265Z,1002.74
2023-04-13T17:47:46.254Z,1002.76
2023-04-13T17:48:46.178Z,1002.80
2023-04-13T17:49:46.140Z,1002.81
2023-04-13T17:50:46.119Z,1002.79
2023-04-13T17:51:46.044Z,1002.83
2023-04-13T17:52:46.001Z,1002.82
2023-04-13T17:53:45.961Z,1002.78
2023-04-13T17:54:45.912Z,1002.83
2023-04-13T17:55:45.870Z,1002.83
2023-04-13T17:56:45.834Z,1002.78
2023-04-13T17:57:45.789Z,1002.84
2023-04-13T17:58:45.739Z,1002.85
2023-04-13T17:59:45.727Z,1002.88
2023-04-13T18:00:45.686Z,1002.83
2023-04-13T18:01:45.731Z,1002.88
2023-04-13T18:02:45.760Z,1002.87
2023-04-13T18:03:45.638Z,1002.88
2023-04-13T18:04:45.552Z,1002.92
2023-04-13T18:05:45.448Z,1002.86
2023-04-13T18:06:45.456Z,1002.92
2023-04-13T18:07:45.346Z,1002.93
2023-04-13T18:08:45.303Z,1002.98
2023-04-13T18:09:45.258Z,1002.95
2023-04-13T18:10:45.217Z,1002.96
2023-04-13T18:11:45.184Z,1003.05
2023-04-13T18:12:45.127Z,1003.05
2023-04-13T18:13:45.082Z,1003.04
2023-04-13T18:14:45.043Z,1003.06
2023-04-13T18:15:45.037Z,1003.12
2023-04-13T18:16:44.993Z,1003.10
2023-04-13T18:17:44.943Z,1003.07
2023-04-13T18:18:44.868Z,1003.13
2023-04-13T18:19:44.825Z,1003.17
2023-04-13T18:20:44.776Z,1003.15
2023-04-13T18:21:44.742Z,1003.18
2023-04-13T18:22:44.714Z,1003.21
2023-04-13T18:23:44.651Z,1003.17
2023-04-13T18:24:44.598Z,1003.19
2023-04-13T18:25:44.552Z,1003.25
2023-04-13T18:26:44.530Z,1003.26
2023-04-13T18:27:44.469Z,1003.26
2023-04-13T18:28:44.428Z,1003.25
2023-04-13T18:29:44.379Z,1003.26
2023-04-13T18:30:44.332Z,1003.30
2023-04-13T18:31:44.337Z,1003.33
2023-04-13T18:37:13.079Z,1003.39
2023-04-13T18:38:13.053Z,1003.40
2023-04-13T18:39:12.988Z,1003.45
2023-04-13T18:40:56.331Z,1003.48
2023-04-13T18:42:44.678Z,1003.52
2023-04-13T18:43:44.629Z,1003.53
2023-04-13T18:44:44.589Z,1003.52
2023-04-13T18:45:44.542Z,1003.54
2023-04-13T18:46:44.542Z,1003.52
2023-04-13T18:47:44.495Z,1003.55
2023-04-13T18:48:44.413Z,1003.59
2023-04-13T18:49:44.363Z,1003.56
2023-04-13T18:50:44.321Z,1003.61
2023-04-13T18:51:44.288Z,1003.59
2023-04-13T18:52:44.233Z,1003.67
2023-04-13T18:53:44.211Z,1003.58
2023-04-13T18:54:44.150Z,1003.67
2023-04-13T18:55:45.828Z,1003.61
2023-04-13T18:58:07.490Z,1003.69
2023-04-13T18:59:07.451Z,1003.70
2023-04-13T19:00:07.412Z,1003.68
2023-04-13T19:01:07.386Z,1003.74
2023-04-13T19:02:07.355Z,1003.73
2023-04-13T19:03:07.337Z,1003.74
2023-04-13T19:04:07.275Z,1003.75
2023-04-13T19:05:07.179Z,1003.71
2023-04-13T19:06:07.142Z,1003.74
2023-04-13T19:22:30.251Z,1003.81
2023-04-13T19:23:30.188Z,1003.82
2023-04-13T19:24:30.152Z,1003.79
2023-04-13T19:25:30.082Z,1003.81
2023-04-13T19:26:30.047Z,1003.76
2023-04-13T19:27:29.987Z,1003.82
2023-04-13T19:33:33.874Z,1003.88
2023-04-13T19:35:33.722Z,1003.89
2023-04-13T19:37:33.883Z,1003.90
2023-04-13T19:38:33.764Z,1003.92
2023-04-13T20:06:05.509Z,1004.06
2023-04-13T20:07:05.389Z,1004.02
2023-04-13T20:32:46.497Z,1004.45
2023-04-13T20:33:46.409Z,1004.44
2023-04-13T20:34:46.349Z,1004.46
2023-04-13T20:35:46.293Z,1004.50
2023-04-13T20:36:46.245Z,1004.49
2023-04-13T23:29:03.963Z,1005.35
2023-04-13T23:30:03.796Z,1005.34
2023-04-13T23:31:03.745Z,1005.34
2023-04-13T23:32:03.727Z,1005.36
2023-04-13T23:33:03.700Z,1005.29
2023-04-13T23:34:03.598Z,1005.31
2023-04-13T23:35:03.564Z,1005.29
2023-04-13T23:36:03.523Z,1005.28
2023-04-13T23:37:03.457Z,1005.29
2023-04-13T23:38:03.400Z,1005.30
2023-04-13T23:39:03.359Z,1005.29
2023-04-13T23:40:03.331Z,1005.26
2023-04-13T23:41:03.257Z,1005.30
2023-04-13T23:43:41.651Z,1005.29
2023-04-13T23:44:41.618Z,1005.31
2023-04-13T23:45:41.575Z,1005.27
2023-04-13T23:46:41.504Z,1005.29
2023-04-13T23:50:08.040Z,1005.28
2023-04-13T23:51:08.001Z,1005.33
2023-04-13T23:52:08.069Z,1005.34
2023-04-13T23:53:07.896Z,1005.36
2023-04-13T23:54:07.855Z,1005.38
2023-04-13T23:55:07.828Z,1005.38
2023-04-13T23:56:07.757Z,1005.38
2023-04-13T23:57:07.705Z,1005.37
2023-04-13T23:58:07.657Z,1005.42
2023-04-13T23:59:07.622Z,1005.40
